• Join FlightAware (Why Join?)
  • Login
  • US Flag 
07:00PM EDT


 

Airport Tracker/Info


-or-


 

Live Flight TrackerFlight Track Log ✈ SWA3924 ✈ 25-Apr-2013 ✈ KEYW - KMCO

Flight Track Log - Related Links

Times and Time Zones

All times are in EDT time to prevent confusion due to time zone crossing. See the SWA3924 flight status page for this flight to view local times or setup timezone preferences in your user account.

Time Position Orientation Groundspeed Altitude Reporting Facility
EDT Latitude Longitude Course Direction KTS MPH feet Rate Location/Type
11:36AM 24.5753 -81.7294 34° Northeast 208 239 2,400  Level Miami Center
11:37AM 24.6356 -81.7319 358° North 263 303 5,500 3,600 Climbing Miami Center
11:38AM 24.7128 -81.7328 359° North 290 334 9,700 3,600 Climbing Miami Center
11:39AM 24.8006 -81.7339 359° North 290 334 12,800 3,300 Climbing Miami Center
11:40AM 24.8967 -81.7353 359° North 320 368 16,400 3,300 Climbing Miami Center
11:41AM 25.0008 -81.7394 358° North 350 403 19,400 3,180 Climbing Miami Center
11:42AM 24.9984 -81.4095 34° Northeast  Level FlightAware Approximate
11:42AM 25.1053 -81.7414 359° North 370 426 22,800  Level Miami Center
11:43AM 25.2136 -81.7433 359° North 375 432 25,900 1,560 Climbing Miami Center
11:44AM 25.3200 -81.7478 358° North 375 432 26,000  Climbing Miami Center
11:45AM 25.4203 -81.7494 359° North 375 432 26,000  Level Miami Center
11:46AM 25.5267 -81.7514 359° North 375 432 26,000 -540 Level Miami Center
11:47AM 25.6331 -81.7533 359° North 375 432 25,000 -1,020 Descending Miami Center
11:48AM 25.7372 -81.7578 358° North 375 432 24,000 -1,020 Descending Miami Center
11:49AM 25.8375 -81.7594 359° North 370 426 23,000 -1,020 Descending Miami Center
11:50AM 25.9356 -81.7611 359° North 358 412 22,000 -540 Descending Miami Center
11:51AM 26.0358 -81.7628 359° North 348 400 22,000  Level Miami Center
11:52AM 26.1339 -81.7647 359° North 348 400 22,000  Level Miami Center
11:53AM 26.2339 -81.7689 358° North 348 400 22,000  Level Miami Center
11:54AM 26.3300 -81.7706 359° North 348 400 22,000  Level Miami Center
11:55AM 26.4300 -81.7744 358° North 348 400 22,000  Level Miami Center
11:56AM 26.5300 -81.7764 359° North 348 400 22,000  Level Miami Center
11:57AM 26.6283 -81.7758 360° North 348 400 22,000  Level Miami Center
11:58AM 26.7264 -81.7731 North 348 400 22,000  Level Miami Center
11:59AM 26.8289 -81.7703 North 348 400 22,000  Level Miami Center
12:00PM 26.9269 -81.7697 360° North 348 400 22,000  Level Miami Center
12:01PM 27.0314 -81.7672 North 358 412 22,000  Level Miami Center
12:02PM 27.1317 -81.7644 North 363 418 22,000  Level Miami Center
12:03PM 27.2403 -81.7619 North 363 418 22,000 -120 Level Miami Center
12:04PM 27.3406 -81.7617 360° North 363 418 21,800 -600 Descending Miami Center
12:05PM 27.4389 -81.7564 North 363 418 20,900 -1,020 Descending Miami Center
12:07PM 27.5443 -81.7507 North  Level FlightAware Approximate
12:07PM 27.6244 -81.7550 North 350 403 18,800  Level Miami Center
12:08PM 27.7269 -81.7525 North 343 395 16,700 -2,280 Descending Miami Center
12:10PM 27.8667 -81.7500 North 345 397 13,100 -1,500 Descending Orlando TRACON
12:11PM 27.9667 -81.7167 16° North 320 368 13,000 -600 Descending Orlando TRACON
12:12PM 28.0500 -81.6667 28° Northeast 319 367 11,900 -1,020 Descending Orlando TRACON
12:13PM 28.1333 -81.6167 28° Northeast 315 362 10,900 -1,020 Descending Orlando TRACON
12:14PM 28.2000 -81.5833 24° Northeast 289 333 9,900 -1,020 Descending Orlando TRACON
12:15PM 28.2500 -81.5333 41° Northeast 276 318 9,000 -480 Descending Orlando TRACON
12:16PM 28.3000 -81.4667 50° Northeast 278 320 9,000  Level Orlando TRACON
12:17PM 28.3667 -81.4167 33° Northeast 272 313 9,000 -600 Level Orlando TRACON
12:18PM 28.4333 -81.4167 360° North 267 307 7,800 -1,320 Descending Orlando TRACON
12:19PM 28.5167 -81.4167 360° North 230 265 6,400 -1,500 Descending Orlando TRACON
12:20PM 28.5833 -81.4167 360° North 225 259 4,700 -1,620 Descending Orlando TRACON
12:21PM 28.6167 -81.3667 53° Northeast 223 257 3,000 -1,080 Descending Orlando TRACON
12:22PM 28.5833 -81.3333 139° Southeast 183 211 2,500 -420 Descending Orlando TRACON
12:23PM 28.5333 -81.3333 180° South 162 186 2,300 -840 Descending Orlando TRACON
12:24PM 28.4833 -81.3333 180° South 145 167 900 -1,320 Descending Orlando TRACON